sensor_id;sensor_type;location;lat;lon;timestamp;temperature;humidity
2190;DHT22;1101;51.056;7.262;2022-07-29T00:01:40;19.30;64.30
2190;DHT22;1101;51.056;7.262;2022-07-29T00:04:09;19.30;64.30
2190;DHT22;1101;51.056;7.262;2022-07-29T00:06:37;19.30;64.40
2190;DHT22;1101;51.056;7.262;2022-07-29T00:09:05;19.30;64.40
2190;DHT22;1101;51.056;7.262;2022-07-29T00:11:33;19.30;64.50
2190;DHT22;1101;51.056;7.262;2022-07-29T00:14:01;19.30;64.60
2190;DHT22;1101;51.056;7.262;2022-07-29T00:16:29;19.30;64.70
2190;DHT22;1101;51.056;7.262;2022-07-29T00:18:57;19.30;64.80
2190;DHT22;1101;51.056;7.262;2022-07-29T00:21:29;19.30;64.90
2190;DHT22;1101;51.056;7.262;2022-07-29T00:23:57;19.20;64.80
2190;DHT22;1101;51.056;7.262;2022-07-29T00:26:25;19.20;65.00
2190;DHT22;1101;51.056;7.262;2022-07-29T00:28:54;19.20;65.00
2190;DHT22;1101;51.056;7.262;2022-07-29T00:31:42;19.20;64.90
2190;DHT22;1101;51.056;7.262;2022-07-29T00:34:10;19.10;65.00
2190;DHT22;1101;51.056;7.262;2022-07-29T00:36:59;19.10;65.00
2190;DHT22;1101;51.056;7.262;2022-07-29T00:39:26;19.10;65.00
2190;DHT22;1101;51.056;7.262;2022-07-29T00:41:54;19.00;65.10
2190;DHT22;1101;51.056;7.262;2022-07-29T00:44:22;19.00;65.30
2190;DHT22;1101;51.056;7.262;2022-07-29T00:46:50;19.00;65.50
2190;DHT22;1101;51.056;7.262;2022-07-29T00:49:18;18.90;65.50
2190;DHT22;1101;51.056;7.262;2022-07-29T00:51:46;18.90;65.70
2190;DHT22;1101;51.056;7.262;2022-07-29T00:54:17;18.90;65.80
2190;DHT22;1101;51.056;7.262;2022-07-29T00:56:45;18.80;65.90
2190;DHT22;1101;51.056;7.262;2022-07-29T00:59:13;18.80;66.00
2190;DHT22;1101;51.056;7.262;2022-07-29T01:01:41;18.80;66.10
2190;DHT22;1101;51.056;7.262;2022-07-29T01:04:08;18.80;66.10
2190;DHT22;1101;51.056;7.262;2022-07-29T01:06:36;18.70;66.00
2190;DHT22;1101;51.056;7.262;2022-07-29T01:09:04;18.70;66.10
2190;DHT22;1101;51.056;7.262;2022-07-29T01:11:34;18.70;66.10
2190;DHT22;1101;51.056;7.262;2022-07-29T01:14:03;18.60;66.10
2190;DHT22;1101;51.056;7.262;2022-07-29T01:16:37;18.60;66.20
2190;DHT22;1101;51.056;7.262;2022-07-29T01:21:58;18.60;66.30
2190;DHT22;1101;51.056;7.262;2022-07-29T01:24:37;18.60;66.50
2190;DHT22;1101;51.056;7.262;2022-07-29T01:27:23;18.50;66.40
2190;DHT22;1101;51.056;7.262;2022-07-29T01:29:58;18.50;66.40
2190;DHT22;1101;51.056;7.262;2022-07-29T01:32:29;18.50;66.50
2190;DHT22;1101;51.056;7.262;2022-07-29T01:35:02;18.40;66.40
2190;DHT22;1101;51.056;7.262;2022-07-29T01:37:38;18.40;66.40
2190;DHT22;1101;51.056;7.262;2022-07-29T01:40:19;18.40;66.50
2190;DHT22;1101;51.056;7.262;2022-07-29T01:42:51;18.30;66.50
2190;DHT22;1101;51.056;7.262;2022-07-29T01:45:24;18.30;66.60
2190;DHT22;1101;51.056;7.262;2022-07-29T01:47:58;18.20;66.60
2190;DHT22;1101;51.056;7.262;2022-07-29T01:50:30;18.20;66.70
2190;DHT22;1101;51.056;7.262;2022-07-29T01:53:02;18.20;66.80
2190;DHT22;1101;51.056;7.262;2022-07-29T01:55:38;18.10;66.70
2190;DHT22;1101;51.056;7.262;2022-07-29T01:58:08;18.00;66.80
2190;DHT22;1101;51.056;7.262;2022-07-29T02:00:47;18.00;66.90
2190;DHT22;1101;51.056;7.262;2022-07-29T02:03:17;18.00;67.00
2190;DHT22;1101;51.056;7.262;2022-07-29T02:05:47;17.90;67.00
2190;DHT22;1101;51.056;7.262;2022-07-29T02:08:18;17.80;67.20
2190;DHT22;1101;51.056;7.262;2022-07-29T02:10:47;17.70;67.30
2190;DHT22;1101;51.056;7.262;2022-07-29T02:13:16;17.70;67.60
2190;DHT22;1101;51.056;7.262;2022-07-29T02:15:51;17.60;67.50
2190;DHT22;1101;51.056;7.262;2022-07-29T02:18:23;17.60;67.50
2190;DHT22;1101;51.056;7.262;2022-07-29T02:20:53;17.70;67.70
2190;DHT22;1101;51.056;7.262;2022-07-29T02:23:24;17.60;67.50
2190;DHT22;1101;51.056;7.262;2022-07-29T02:25:56;17.60;67.60
2190;DHT22;1101;51.056;7.262;2022-07-29T02:28:27;17.60;67.60
2190;DHT22;1101;51.056;7.262;2022-07-29T02:31:00;17.60;67.50
2190;DHT22;1101;51.056;7.262;2022-07-29T02:33:30;17.60;67.60
2190;DHT22;1101;51.056;7.262;2022-07-29T02:35:59;17.60;67.50
2190;DHT22;1101;51.056;7.262;2022-07-29T02:38:56;17.60;67.30
2190;DHT22;1101;51.056;7.262;2022-07-29T02:41:57;17.70;67.20
2190;DHT22;1101;51.056;7.262;2022-07-29T02:44:26;17.70;67.10
2190;DHT22;1101;51.056;7.262;2022-07-29T02:47:07;17.80;67.10
2190;DHT22;1101;51.056;7.262;2022-07-29T02:49:38;17.80;67.00
2190;DHT22;1101;51.056;7.262;2022-07-29T02:52:40;17.80;67.00
2190;DHT22;1101;51.056;7.262;2022-07-29T02:55:14;17.80;67.00
2190;DHT22;1101;51.056;7.262;2022-07-29T02:57:44;17.80;66.90
2190;DHT22;1101;51.056;7.262;2022-07-29T03:00:22;17.80;66.80
2190;DHT22;1101;51.056;7.262;2022-07-29T03:02:54;17.80;66.80
2190;DHT22;1101;51.056;7.262;2022-07-29T03:05:22;17.80;66.80
2190;DHT22;1101;51.056;7.262;2022-07-29T03:07:54;17.80;66.60
2190;DHT22;1101;51.056;7.262;2022-07-29T03:10:23;17.80;66.60
2190;DHT22;1101;51.056;7.262;2022-07-29T03:12:52;17.80;66.60
2190;DHT22;1101;51.056;7.262;2022-07-29T03:15:21;17.80;66.60
2190;DHT22;1101;51.056;7.262;2022-07-29T03:17:52;17.80;66.60
2190;DHT22;1101;51.056;7.262;2022-07-29T03:20:20;17.80;67.20
2190;DHT22;1101;51.056;7.262;2022-07-29T03:22:48;17.70;67.00
2190;DHT22;1101;51.056;7.262;2022-07-29T03:25:18;17.70;67.30
2190;DHT22;1101;51.056;7.262;2022-07-29T03:27:47;17.70;67.40
2190;DHT22;1101;51.056;7.262;2022-07-29T03:30:16;17.60;67.50
2190;DHT22;1101;51.056;7.262;2022-07-29T03:32:49;17.60;67.60
2190;DHT22;1101;51.056;7.262;2022-07-29T03:35:20;17.50;67.80
2190;DHT22;1101;51.056;7.262;2022-07-29T03:37:49;17.40;67.80
2190;DHT22;1101;51.056;7.262;2022-07-29T03:40:22;17.40;68.00
2190;DHT22;1101;51.056;7.262;2022-07-29T03:42:51;17.30;68.20
2190;DHT22;1101;51.056;7.262;2022-07-29T03:45:21;17.30;68.30
2190;DHT22;1101;51.056;7.262;2022-07-29T03:47:53;17.40;68.60
2190;DHT22;1101;51.056;7.262;2022-07-29T03:50:29;17.30;68.60
2190;DHT22;1101;51.056;7.262;2022-07-29T03:52:57;17.40;68.20
2190;DHT22;1101;51.056;7.262;2022-07-29T03:55:26;17.40;67.90
2190;DHT22;1101;51.056;7.262;2022-07-29T03:57:57;17.50;67.80
2190;DHT22;1101;51.056;7.262;2022-07-29T04:00:25;17.60;67.60
2190;DHT22;1101;51.056;7.262;2022-07-29T04:02:54;17.60;67.60
2190;DHT22;1101;51.056;7.262;2022-07-29T04:05:22;17.60;67.40
2190;DHT22;1101;51.056;7.262;2022-07-29T04:07:51;17.70;67.30
2190;DHT22;1101;51.056;7.262;2022-07-29T04:10:19;17.70;67.30
2190;DHT22;1101;51.056;7.262;2022-07-29T04:12:57;17.80;67.30
2190;DHT22;1101;51.056;7.262;2022-07-29T04:15:25;17.80;67.30
2190;DHT22;1101;51.056;7.262;2022-07-29T04:17:57;17.80;67.30
2190;DHT22;1101;51.056;7.262;2022-07-29T04:20:25;17.80;67.40
2190;DHT22;1101;51.056;7.262;2022-07-29T04:22:54;17.80;67.40
2190;DHT22;1101;51.056;7.262;2022-07-29T04:25:22;17.80;67.50
2190;DHT22;1101;51.056;7.262;2022-07-29T04:27:50;17.80;67.50
2190;DHT22;1101;51.056;7.262;2022-07-29T04:30:31;17.80;67.50
2190;DHT22;1101;51.056;7.262;2022-07-29T04:33:00;17.70;67.40
2190;DHT22;1101;51.056;7.262;2022-07-29T04:35:28;17.80;67.50
2190;DHT22;1101;51.056;7.262;2022-07-29T04:38:06;17.80;67.50
2190;DHT22;1101;51.056;7.262;2022-07-29T04:40:42;17.80;67.40
2190;DHT22;1101;51.056;7.262;2022-07-29T04:43:12;17.80;67.40
2190;DHT22;1101;51.056;7.262;2022-07-29T04:45:41;17.80;67.40
2190;DHT22;1101;51.056;7.262;2022-07-29T04:48:09;17.80;67.40
2190;DHT22;1101;51.056;7.262;2022-07-29T04:50:38;17.80;67.50
2190;DHT22;1101;51.056;7.262;2022-07-29T04:53:13;17.80;67.60
2190;DHT22;1101;51.056;7.262;2022-07-29T04:55:41;17.80;67.40
2190;DHT22;1101;51.056;7.262;2022-07-29T04:58:09;17.80;67.50
2190;DHT22;1101;51.056;7.262;2022-07-29T05:00:37;17.80;67.50
2190;DHT22;1101;51.056;7.262;2022-07-29T05:03:06;17.80;67.60
2190;DHT22;1101;51.056;7.262;2022-07-29T05:05:34;17.80;67.60
2190;DHT22;1101;51.056;7.262;2022-07-29T05:08:02;17.80;67.50
2190;DHT22;1101;51.056;7.262;2022-07-29T05:10:31;17.80;67.80
2190;DHT22;1101;51.056;7.262;2022-07-29T05:13:00;17.80;67.70
2190;DHT22;1101;51.056;7.262;2022-07-29T05:15:28;17.80;67.70
2190;DHT22;1101;51.056;7.262;2022-07-29T05:17:56;17.80;67.80
2190;DHT22;1101;51.056;7.262;2022-07-29T05:20:24;17.80;67.80
2190;DHT22;1101;51.056;7.262;2022-07-29T05:22:54;17.80;67.90
2190;DHT22;1101;51.056;7.262;2022-07-29T05:25:22;17.80;67.90
2190;DHT22;1101;51.056;7.262;2022-07-29T05:28:10;17.80;67.90
2190;DHT22;1101;51.056;7.262;2022-07-29T05:30:38;17.90;68.00
2190;DHT22;1101;51.056;7.262;2022-07-29T05:33:06;17.90;68.00
2190;DHT22;1101;51.056;7.262;2022-07-29T05:35:54;18.00;68.00
2190;DHT22;1101;51.056;7.262;2022-07-29T05:38:26;18.00;68.10
2190;DHT22;1101;51.056;7.262;2022-07-29T05:40:56;18.00;68.10
2190;DHT22;1101;51.056;7.262;2022-07-29T05:43:26;18.10;68.10
2190;DHT22;1101;51.056;7.262;2022-07-29T05:45:54;18.10;68.10
2190;DHT22;1101;51.056;7.262;2022-07-29T05:48:21;18.20;68.10
2190;DHT22;1101;51.056;7.262;2022-07-29T05:51:17;18.30;68.10
2190;DHT22;1101;51.056;7.262;2022-07-29T05:53:44;18.30;68.10
2190;DHT22;1101;51.056;7.262;2022-07-29T05:56:12;18.40;68.20
2190;DHT22;1101;51.056;7.262;2022-07-29T05:58:41;18.40;68.20
2190;DHT22;1101;51.056;7.262;2022-07-29T06:01:09;18.50;68.20
2190;DHT22;1101;51.056;7.262;2022-07-29T06:03:37;18.50;68.80
2190;DHT22;1101;51.056;7.262;2022-07-29T06:06:07;18.50;68.10
2190;DHT22;1101;51.056;7.262;2022-07-29T06:08:38;18.60;68.20
2190;DHT22;1101;51.056;7.262;2022-07-29T06:11:06;18.60;68.10
2190;DHT22;1101;51.056;7.262;2022-07-29T06:13:35;18.60;68.20
2190;DHT22;1101;51.056;7.262;2022-07-29T06:16:05;18.70;68.20
2190;DHT22;1101;51.056;7.262;2022-07-29T06:18:33;18.70;68.20
2190;DHT22;1101;51.056;7.262;2022-07-29T06:21:01;18.70;68.10
2190;DHT22;1101;51.056;7.262;2022-07-29T06:23:35;18.80;68.20
2190;DHT22;1101;51.056;7.262;2022-07-29T06:26:03;18.80;68.20
2190;DHT22;1101;51.056;7.262;2022-07-29T06:28:31;18.90;68.20
2190;DHT22;1101;51.056;7.262;2022-07-29T06:30:58;18.90;68.20
2190;DHT22;1101;51.056;7.262;2022-07-29T06:33:27;18.90;68.20
2190;DHT22;1101;51.056;7.262;2022-07-29T06:35:55;19.00;68.30
2190;DHT22;1101;51.056;7.262;2022-07-29T06:38:23;19.00;68.20
2190;DHT22;1101;51.056;7.262;2022-07-29T06:41:00;19.10;68.30
2190;DHT22;1101;51.056;7.262;2022-07-29T06:43:30;19.10;68.50
2190;DHT22;1101;51.056;7.262;2022-07-29T06:46:00;19.20;68.50
2190;DHT22;1101;51.056;7.262;2022-07-29T06:48:30;19.20;68.30
2190;DHT22;1101;51.056;7.262;2022-07-29T06:50:58;19.20;68.20
2190;DHT22;1101;51.056;7.262;2022-07-29T06:53:27;19.30;68.20
2190;DHT22;1101;51.056;7.262;2022-07-29T06:55:54;19.40;68.10
2190;DHT22;1101;51.056;7.262;2022-07-29T06:58:22;19.50;68.00
2190;DHT22;1101;51.056;7.262;2022-07-29T07:01:18;19.60;67.90
2190;DHT22;1101;51.056;7.262;2022-07-29T07:03:48;19.70;67.90
2190;DHT22;1101;51.056;7.262;2022-07-29T07:06:19;19.80;68.00
2190;DHT22;1101;51.056;7.262;2022-07-29T07:08:46;19.90;67.90
2190;DHT22;1101;51.056;7.262;2022-07-29T07:11:14;20.00;67.80
2190;DHT22;1101;51.056;7.262;2022-07-29T07:13:42;20.20;67.80
2190;DHT22;1101;51.056;7.262;2022-07-29T07:16:10;20.30;67.70
2190;DHT22;1101;51.056;7.262;2022-07-29T07:18:38;20.40;67.70
2190;DHT22;1101;51.056;7.262;2022-07-29T07:21:07;20.40;67.70
2190;DHT22;1101;51.056;7.262;2022-07-29T07:23:35;20.50;67.80
2190;DHT22;1101;51.056;7.262;2022-07-29T07:26:03;20.50;67.70
2190;DHT22;1101;51.056;7.262;2022-07-29T07:28:32;20.50;67.70
2190;DHT22;1101;51.056;7.262;2022-07-29T07:31:00;20.60;67.80
2190;DHT22;1101;51.056;7.262;2022-07-29T07:33:28;20.80;67.70
2190;DHT22;1101;51.056;7.262;2022-07-29T07:36:00;20.90;67.50
2190;DHT22;1101;51.056;7.262;2022-07-29T07:38:30;21.10;67.40
2190;DHT22;1101;51.056;7.262;2022-07-29T07:41:05;21.20;67.10
2190;DHT22;1101;51.056;7.262;2022-07-29T07:43:32;21.30;66.90
2190;DHT22;1101;51.056;7.262;2022-07-29T07:46:02;21.30;66.90
2190;DHT22;1101;51.056;7.262;2022-07-29T07:48:30;21.30;67.00
2190;DHT22;1101;51.056;7.262;2022-07-29T07:50:58;21.30;67.00
2190;DHT22;1101;51.056;7.262;2022-07-29T07:53:26;21.30;67.10
2190;DHT22;1101;51.056;7.262;2022-07-29T07:56:24;21.40;67.20
2190;DHT22;1101;51.056;7.262;2022-07-29T07:58:58;21.50;67.30
2190;DHT22;1101;51.056;7.262;2022-07-29T08:01:26;21.70;67.30
2190;DHT22;1101;51.056;7.262;2022-07-29T08:03:54;21.80;67.20
2190;DHT22;1101;51.056;7.262;2022-07-29T08:06:22;21.80;67.00
2190;DHT22;1101;51.056;7.262;2022-07-29T08:08:51;21.90;66.90
2190;DHT22;1101;51.056;7.262;2022-07-29T08:11:22;21.90;66.90
2190;DHT22;1101;51.056;7.262;2022-07-29T08:13:51;21.90;67.10
2190;DHT22;1101;51.056;7.262;2022-07-29T08:16:19;21.90;67.00
2190;DHT22;1101;51.056;7.262;2022-07-29T08:18:47;21.90;66.90
2190;DHT22;1101;51.056;7.262;2022-07-29T08:21:21;22.00;67.00
2190;DHT22;1101;51.056;7.262;2022-07-29T08:23:49;22.20;67.10
2190;DHT22;1101;51.056;7.262;2022-07-29T08:26:28;22.40;67.10
2190;DHT22;1101;51.056;7.262;2022-07-29T08:28:57;22.50;66.80
2190;DHT22;1101;51.056;7.262;2022-07-29T08:31:25;22.60;66.60
2190;DHT22;1101;51.056;7.262;2022-07-29T08:33:53;22.70;66.40
2190;DHT22;1101;51.056;7.262;2022-07-29T08:36:22;22.70;66.30
2190;DHT22;1101;51.056;7.262;2022-07-29T08:38:51;22.70;66.40
2190;DHT22;1101;51.056;7.262;2022-07-29T08:41:19;22.70;66.30
2190;DHT22;1101;51.056;7.262;2022-07-29T08:43:48;22.70;66.20
2190;DHT22;1101;51.056;7.262;2022-07-29T08:46:17;22.70;66.20
2190;DHT22;1101;51.056;7.262;2022-07-29T08:48:46;22.80;66.40
2190;DHT22;1101;51.056;7.262;2022-07-29T08:51:17;22.80;66.30
2190;DHT22;1101;51.056;7.262;2022-07-29T08:53:46;22.80;66.20
2190;DHT22;1101;51.056;7.262;2022-07-29T08:56:17;22.80;66.30
2190;DHT22;1101;51.056;7.262;2022-07-29T08:58:45;22.90;66.40
2190;DHT22;1101;51.056;7.262;2022-07-29T09:01:24;22.90;66.20
2190;DHT22;1101;51.056;7.262;2022-07-29T09:04:11;22.90;66.30
2190;DHT22;1101;51.056;7.262;2022-07-29T09:06:43;22.90;66.20
2190;DHT22;1101;51.056;7.262;2022-07-29T09:09:12;22.90;66.30
2190;DHT22;1101;51.056;7.262;2022-07-29T09:11:41;22.80;66.00
2190;DHT22;1101;51.056;7.262;2022-07-29T09:14:11;22.70;66.20
2190;DHT22;1101;51.056;7.262;2022-07-29T09:16:52;22.60;66.10
2190;DHT22;1101;51.056;7.262;2022-07-29T09:19:23;22.60;66.20
2190;DHT22;1101;51.056;7.262;2022-07-29T09:21:52;22.60;66.10
2190;DHT22;1101;51.056;7.262;2022-07-29T09:24:40;22.60;66.20
2190;DHT22;1101;51.056;7.262;2022-07-29T09:27:18;22.60;66.30
2190;DHT22;1101;51.056;7.262;2022-07-29T09:29:48;22.60;66.30
2190;DHT22;1101;51.056;7.262;2022-07-29T09:32:23;22.60;66.20
2190;DHT22;1101;51.056;7.262;2022-07-29T09:35:14;22.70;66.30
2190;DHT22;1101;51.056;7.262;2022-07-29T09:37:43;22.70;66.10
2190;DHT22;1101;51.056;7.262;2022-07-29T09:40:13;22.80;66.30
2190;DHT22;1101;51.056;7.262;2022-07-29T09:42:48;22.80;66.30
2190;DHT22;1101;51.056;7.262;2022-07-29T09:45:27;22.80;66.30
2190;DHT22;1101;51.056;7.262;2022-07-29T09:48:13;22.90;66.40
2190;DHT22;1101;51.056;7.262;2022-07-29T09:50:43;22.90;66.40
2190;DHT22;1101;51.056;7.262;2022-07-29T09:53:30;23.00;66.50
2190;DHT22;1101;51.056;7.262;2022-07-29T09:55:58;23.10;66.50
2190;DHT22;1101;51.056;7.262;2022-07-29T09:58:26;23.10;66.40
2190;DHT22;1101;51.056;7.262;2022-07-29T10:00:55;23.10;66.10
2190;DHT22;1101;51.056;7.262;2022-07-29T10:03:25;23.20;66.30
2190;DHT22;1101;51.056;7.262;2022-07-29T10:06:07;23.30;66.40
2190;DHT22;1101;51.056;7.262;2022-07-29T10:08:36;23.60;66.30
2190;DHT22;1101;51.056;7.262;2022-07-29T10:11:11;23.80;66.20
2190;DHT22;1101;51.056;7.262;2022-07-29T10:13:41;24.00;66.10
2190;DHT22;1101;51.056;7.262;2022-07-29T10:16:10;24.10;65.80
2190;DHT22;1101;51.056;7.262;2022-07-29T10:18:42;24.10;65.40
2190;DHT22;1101;51.056;7.262;2022-07-29T10:21:14;24.10;65.30
2190;DHT22;1101;51.056;7.262;2022-07-29T10:24:02;24.20;65.40
2190;DHT22;1101;51.056;7.262;2022-07-29T10:26:31;24.30;65.60
2190;DHT22;1101;51.056;7.262;2022-07-29T10:29:00;24.60;65.50
2190;DHT22;1101;51.056;7.262;2022-07-29T10:31:36;24.80;65.50
2190;DHT22;1101;51.056;7.262;2022-07-29T10:34:16;25.10;65.10
2190;DHT22;1101;51.056;7.262;2022-07-29T10:36:54;25.20;64.80
2190;DHT22;1101;51.056;7.262;2022-07-29T10:39:34;25.40;64.70
2190;DHT22;1101;51.056;7.262;2022-07-29T10:42:18;25.50;64.50
2190;DHT22;1101;51.056;7.262;2022-07-29T10:45:02;25.50;64.20
2190;DHT22;1101;51.056;7.262;2022-07-29T10:47:31;25.50;64.10
2190;DHT22;1101;51.056;7.262;2022-07-29T10:50:04;25.50;64.00
2190;DHT22;1101;51.056;7.262;2022-07-29T10:52:55;25.50;63.80
2190;DHT22;1101;51.056;7.262;2022-07-29T10:55:33;25.40;63.90
2190;DHT22;1101;51.056;7.262;2022-07-29T10:58:13;25.30;63.50
2190;DHT22;1101;51.056;7.262;2022-07-29T11:00:44;25.30;63.50
2190;DHT22;1101;51.056;7.262;2022-07-29T11:03:43;25.20;63.40
2190;DHT22;1101;51.056;7.262;2022-07-29T11:06:17;25.20;63.50
2190;DHT22;1101;51.056;7.262;2022-07-29T11:09:15;25.20;63.50
2190;DHT22;1101;51.056;7.262;2022-07-29T11:11:45;25.20;63.40
2190;DHT22;1101;51.056;7.262;2022-07-29T11:14:17;25.30;63.20
2190;DHT22;1101;51.056;7.262;2022-07-29T11:17:03;25.30;63.10
2190;DHT22;1101;51.056;7.262;2022-07-29T11:19:33;25.30;63.00
2190;DHT22;1101;51.056;7.262;2022-07-29T11:22:09;25.30;63.10
2190;DHT22;1101;51.056;7.262;2022-07-29T11:24:42;25.30;63.20
2190;DHT22;1101;51.056;7.262;2022-07-29T11:27:17;25.30;63.20
2190;DHT22;1101;51.056;7.262;2022-07-29T11:29:51;25.40;63.10
2190;DHT22;1101;51.056;7.262;2022-07-29T11:32:21;25.40;63.00
2190;DHT22;1101;51.056;7.262;2022-07-29T11:35:10;25.40;62.90
2190;DHT22;1101;51.056;7.262;2022-07-29T11:37:45;25.40;63.00
2190;DHT22;1101;51.056;7.262;2022-07-29T11:40:23;25.30;63.50
2190;DHT22;1101;51.056;7.262;2022-07-29T11:42:52;25.20;64.00
2190;DHT22;1101;51.056;7.262;2022-07-29T11:45:25;25.10;64.50
2190;DHT22;1101;51.056;7.262;2022-07-29T11:48:16;25.20;64.60
2190;DHT22;1101;51.056;7.262;2022-07-29T11:50:56;25.20;64.60
2190;DHT22;1101;51.056;7.262;2022-07-29T11:53:26;25.30;65.50
2190;DHT22;1101;51.056;7.262;2022-07-29T11:55:59;25.50;64.60
2190;DHT22;1101;51.056;7.262;2022-07-29T11:58:30;25.70;64.60
2190;DHT22;1101;51.056;7.262;2022-07-29T12:00:59;25.80;64.30
2190;DHT22;1101;51.056;7.262;2022-07-29T12:04:02;25.80;64.30
2190;DHT22;1101;51.056;7.262;2022-07-29T12:06:32;25.80;64.10
2190;DHT22;1101;51.056;7.262;2022-07-29T12:09:08;25.70;64.00
2190;DHT22;1101;51.056;7.262;2022-07-29T12:11:40;25.70;64.50
2190;DHT22;1101;51.056;7.262;2022-07-29T12:14:25;25.80;64.40
2190;DHT22;1101;51.056;7.262;2022-07-29T12:16:53;25.80;64.10
2190;DHT22;1101;51.056;7.262;2022-07-29T12:19:21;26.00;64.20
2190;DHT22;1101;51.056;7.262;2022-07-29T12:21:53;26.10;64.10
2190;DHT22;1101;51.056;7.262;2022-07-29T12:24:26;26.40;64.00
2190;DHT22;1101;51.056;7.262;2022-07-29T12:26:57;26.60;63.80
2190;DHT22;1101;51.056;7.262;2022-07-29T12:29:26;26.70;63.60
2190;DHT22;1101;51.056;7.262;2022-07-29T12:32:02;26.70;63.60
2190;DHT22;1101;51.056;7.262;2022-07-29T12:34:40;26.80;63.50
2190;DHT22;1101;51.056;7.262;2022-07-29T12:37:09;26.90;63.00
2190;DHT22;1101;51.056;7.262;2022-07-29T12:39:38;26.90;63.20
2190;DHT22;1101;51.056;7.262;2022-07-29T12:42:11;27.00;63.20
2190;DHT22;1101;51.056;7.262;2022-07-29T12:44:44;27.00;63.20
2190;DHT22;1101;51.056;7.262;2022-07-29T12:47:12;27.10;63.00
2190;DHT22;1101;51.056;7.262;2022-07-29T12:49:40;27.10;63.00
2190;DHT22;1101;51.056;7.262;2022-07-29T12:52:26;27.00;63.10
2190;DHT22;1101;51.056;7.262;2022-07-29T12:54:55;27.10;63.20
2190;DHT22;1101;51.056;7.262;2022-07-29T12:57:24;27.10;63.30
2190;DHT22;1101;51.056;7.262;2022-07-29T13:00:05;27.30;63.20
2190;DHT22;1101;51.056;7.262;2022-07-29T13:02:36;27.30;63.00
2190;DHT22;1101;51.056;7.262;2022-07-29T13:05:06;27.30;62.90
2190;DHT22;1101;51.056;7.262;2022-07-29T13:07:38;27.20;62.80
2190;DHT22;1101;51.056;7.262;2022-07-29T13:10:24;27.30;62.80
2190;DHT22;1101;51.056;7.262;2022-07-29T13:13:03;27.40;62.60
2190;DHT22;1101;51.056;7.262;2022-07-29T13:15:34;27.40;62.50
2190;DHT22;1101;51.056;7.262;2022-07-29T13:18:03;27.50;62.50
2190;DHT22;1101;51.056;7.262;2022-07-29T13:20:31;27.40;62.30
2190;DHT22;1101;51.056;7.262;2022-07-29T13:23:00;27.40;62.30
2190;DHT22;1101;51.056;7.262;2022-07-29T13:26:05;27.40;62.10
2190;DHT22;1101;51.056;7.262;2022-07-29T13:28:33;27.30;62.40
2190;DHT22;1101;51.056;7.262;2022-07-29T13:31:01;27.30;62.30
2190;DHT22;1101;51.056;7.262;2022-07-29T13:33:29;27.30;62.30
2190;DHT22;1101;51.056;7.262;2022-07-29T13:35:57;27.30;62.30
2190;DHT22;1101;51.056;7.262;2022-07-29T13:38:25;27.20;62.20
2190;DHT22;1101;51.056;7.262;2022-07-29T13:40:58;27.10;61.80
2190;DHT22;1101;51.056;7.262;2022-07-29T13:43:26;27.00;62.00
2190;DHT22;1101;51.056;7.262;2022-07-29T13:45:53;26.90;61.70
2190;DHT22;1101;51.056;7.262;2022-07-29T13:48:21;26.80;62.00
2190;DHT22;1101;51.056;7.262;2022-07-29T13:50:49;26.70;62.40
2190;DHT22;1101;51.056;7.262;2022-07-29T13:53:17;26.80;63.00
2190;DHT22;1101;51.056;7.262;2022-07-29T13:55:52;26.90;62.50
2190;DHT22;1101;51.056;7.262;2022-07-29T13:58:21;26.90;62.30
2190;DHT22;1101;51.056;7.262;2022-07-29T14:00:49;27.00;61.80
2190;DHT22;1101;51.056;7.262;2022-07-29T14:03:18;27.00;61.90
2190;DHT22;1101;51.056;7.262;2022-07-29T14:06:13;27.10;62.40
2190;DHT22;1101;51.056;7.262;2022-07-29T14:08:43;27.20;62.10
2190;DHT22;1101;51.056;7.262;2022-07-29T14:11:11;27.40;62.10
2190;DHT22;1101;51.056;7.262;2022-07-29T14:13:40;27.50;62.80
2190;DHT22;1101;51.056;7.262;2022-07-29T14:16:09;27.60;61.50
2190;DHT22;1101;51.056;7.262;2022-07-29T14:18:37;27.60;60.40
2190;DHT22;1101;51.056;7.262;2022-07-29T14:21:05;27.50;60.70
2190;DHT22;1101;51.056;7.262;2022-07-29T14:23:32;27.50;60.80
2190;DHT22;1101;51.056;7.262;2022-07-29T14:26:01;27.40;60.10
2190;DHT22;1101;51.056;7.262;2022-07-29T14:28:41;27.30;60.80
2190;DHT22;1101;51.056;7.262;2022-07-29T14:31:10;27.40;61.10
2190;DHT22;1101;51.056;7.262;2022-07-29T14:33:38;27.50;60.70
2190;DHT22;1101;51.056;7.262;2022-07-29T14:36:05;27.50;60.90
2190;DHT22;1101;51.056;7.262;2022-07-29T14:38:34;27.60;60.80
2190;DHT22;1101;51.056;7.262;2022-07-29T14:41:02;27.70;60.60
2190;DHT22;1101;51.056;7.262;2022-07-29T14:43:29;27.80;60.10
2190;DHT22;1101;51.056;7.262;2022-07-29T14:45:58;27.90;60.00
2190;DHT22;1101;51.056;7.262;2022-07-29T14:48:34;27.90;60.10
2190;DHT22;1101;51.056;7.262;2022-07-29T14:51:01;27.90;59.90
2190;DHT22;1101;51.056;7.262;2022-07-29T14:53:30;27.90;59.30
2190;DHT22;1101;51.056;7.262;2022-07-29T14:55:59;27.90;60.10
2190;DHT22;1101;51.056;7.262;2022-07-29T14:58:46;27.90;60.10
2190;DHT22;1101;51.056;7.262;2022-07-29T15:01:18;28.00;59.70
2190;DHT22;1101;51.056;7.262;2022-07-29T15:03:46;28.10;59.90
2190;DHT22;1101;51.056;7.262;2022-07-29T15:06:14;28.20;59.80
2190;DHT22;1101;51.056;7.262;2022-07-29T15:08:42;28.30;59.80
2190;DHT22;1101;51.056;7.262;2022-07-29T15:11:13;28.40;59.90
2190;DHT22;1101;51.056;7.262;2022-07-29T15:13:41;28.50;59.60
2190;DHT22;1101;51.056;7.262;2022-07-29T15:16:09;28.50;59.50
2190;DHT22;1101;51.056;7.262;2022-07-29T15:18:38;28.60;59.50
2190;DHT22;1101;51.056;7.262;2022-07-29T15:21:06;28.60;59.10
2190;DHT22;1101;51.056;7.262;2022-07-29T15:23:34;28.60;59.00
2190;DHT22;1101;51.056;7.262;2022-07-29T15:26:02;28.60;59.10
2190;DHT22;1101;51.056;7.262;2022-07-29T15:28:30;28.60;58.80
2190;DHT22;1101;51.056;7.262;2022-07-29T15:30:58;28.50;59.10
2190;DHT22;1101;51.056;7.262;2022-07-29T15:33:26;28.50;58.90
2190;DHT22;1101;51.056;7.262;2022-07-29T15:35:57;28.50;59.00
2190;DHT22;1101;51.056;7.262;2022-07-29T15:38:24;28.50;59.10
2190;DHT22;1101;51.056;7.262;2022-07-29T15:40:54;28.50;58.80
2190;DHT22;1101;51.056;7.262;2022-07-29T15:43:22;28.30;58.90
2190;DHT22;1101;51.056;7.262;2022-07-29T15:45:52;28.30;58.80
2190;DHT22;1101;51.056;7.262;2022-07-29T15:48:39;28.20;59.60
2190;DHT22;1101;51.056;7.262;2022-07-29T15:51:35;28.20;58.40
2190;DHT22;1101;51.056;7.262;2022-07-29T15:54:06;28.20;58.80
2190;DHT22;1101;51.056;7.262;2022-07-29T15:56:34;28.10;58.80
2190;DHT22;1101;51.056;7.262;2022-07-29T15:59:02;28.10;59.00
2190;DHT22;1101;51.056;7.262;2022-07-29T16:01:30;28.20;59.10
2190;DHT22;1101;51.056;7.262;2022-07-29T16:03:58;28.30;58.70
2190;DHT22;1101;51.056;7.262;2022-07-29T16:06:25;28.20;58.40
2190;DHT22;1101;51.056;7.262;2022-07-29T16:08:54;28.20;58.40
2190;DHT22;1101;51.056;7.262;2022-07-29T16:11:24;28.10;58.20
2190;DHT22;1101;51.056;7.262;2022-07-29T16:13:51;28.10;58.20
2190;DHT22;1101;51.056;7.262;2022-07-29T16:16:22;28.00;58.40
2190;DHT22;1101;51.056;7.262;2022-07-29T16:18:50;27.90;58.50
2190;DHT22;1101;51.056;7.262;2022-07-29T16:21:18;27.90;58.40
2190;DHT22;1101;51.056;7.262;2022-07-29T16:23:48;27.90;58.40
2190;DHT22;1101;51.056;7.262;2022-07-29T16:26:17;27.90;58.30
2190;DHT22;1101;51.056;7.262;2022-07-29T16:28:45;27.80;58.50
2190;DHT22;1101;51.056;7.262;2022-07-29T16:31:14;27.70;58.20
2190;DHT22;1101;51.056;7.262;2022-07-29T16:33:46;27.60;58.00
2190;DHT22;1101;51.056;7.262;2022-07-29T16:36:21;27.60;58.30